createdAt,value
2023-02-25T00:01:39.068Z,3.35
2023-02-25T00:04:06.152Z,3.75
2023-02-25T00:06:32.910Z,4.10
2023-02-25T00:08:59.638Z,4.45
2023-02-25T00:11:27.389Z,3.83
2023-02-25T00:13:54.134Z,5.00
2023-02-25T00:16:23.706Z,5.78
2023-02-25T00:18:55.540Z,9.50
2023-02-25T00:21:23.345Z,4.72
2023-02-25T00:23:51.156Z,5.32
2023-02-25T00:26:18.561Z,4.57
2023-02-25T00:28:45.590Z,6.40
2023-02-25T00:31:16.069Z,6.15
2023-02-25T00:33:43.246Z,6.80
2023-02-25T00:36:14.589Z,7.75
2023-02-25T00:38:41.487Z,6.45
2023-02-25T00:41:11.827Z,6.30
2023-02-25T00:43:40.667Z,7.25
2023-02-25T00:46:07.781Z,9.68
2023-02-25T00:48:34.585Z,7.75
2023-02-25T00:51:09.888Z,7.63
2023-02-25T00:53:37.821Z,9.60
2023-02-25T00:56:06.658Z,7.72
2023-02-25T00:58:37.934Z,7.95
2023-02-25T01:01:33.962Z,8.93
2023-02-25T01:04:01.148Z,6.43
2023-02-25T01:06:29.236Z,7.85
2023-02-25T01:08:57.326Z,8.48
2023-02-25T01:11:30.506Z,7.88
2023-02-25T01:13:59.453Z,6.63
2023-02-25T01:16:28.309Z,8.45
2023-02-25T01:18:57.056Z,8.77
2023-02-25T01:21:26.839Z,9.32
2023-02-25T01:24:17.149Z,9.02
2023-02-25T01:26:45.547Z,7.25
2023-02-25T01:29:15.291Z,7.32
2023-02-25T01:31:42.451Z,7.00
2023-02-25T01:34:13.136Z,7.82
2023-02-25T01:36:39.921Z,7.75
2023-02-25T01:39:08.353Z,6.40
2023-02-25T01:41:38.468Z,9.40
2023-02-25T01:44:13.264Z,7.93
2023-02-25T01:46:42.490Z,8.52
2023-02-25T01:49:17.830Z,6.00
2023-02-25T01:51:48.828Z,8.30
2023-02-25T01:54:16.994Z,7.32
2023-02-25T01:56:49.396Z,6.20
2023-02-25T01:59:18.398Z,7.82
2023-02-25T02:01:45.400Z,7.32
2023-02-25T02:04:15.195Z,7.97
2023-02-25T02:06:45.162Z,7.00
2023-02-25T02:09:16.424Z,8.35
2023-02-25T02:11:44.954Z,7.63
2023-02-25T02:14:17.252Z,7.10
2023-02-25T02:17:09.409Z,7.22
2023-02-25T02:19:49.547Z,6.60
2023-02-25T02:22:47.858Z,9.45
2023-02-25T02:25:22.694Z,8.73
2023-02-25T02:28:05.613Z,7.88
2023-02-25T02:30:57.773Z,6.22
2023-02-25T02:33:42.641Z,7.53
2023-02-25T02:36:32.013Z,7.25
2023-02-25T02:39:13.639Z,5.90
2023-02-25T02:41:55.686Z,8.20
2023-02-25T02:44:31.690Z,7.00
2023-02-25T02:47:10.343Z,7.25
2023-02-25T02:49:47.453Z,8.05
2023-02-25T02:52:19.133Z,6.95
2023-02-25T02:55:00.833Z,6.18
2023-02-25T02:57:30.548Z,8.20
2023-02-25T03:00:12.577Z,8.20
2023-02-25T03:02:42.723Z,6.85
2023-02-25T03:05:16.669Z,10.05
2023-02-25T03:07:51.065Z,7.97
2023-02-25T03:10:21.494Z,9.25
2023-02-25T03:12:49.001Z,7.20
2023-02-25T03:15:15.916Z,7.80
2023-02-25T03:17:46.963Z,9.30
2023-02-25T03:20:22.762Z,9.98
2023-02-25T03:22:52.453Z,7.63
2023-02-25T03:25:27.035Z,9.93
2023-02-25T03:27:57.066Z,7.07
2023-02-25T03:30:39.122Z,8.55
2023-02-25T03:33:14.306Z,8.05
2023-02-25T03:35:42.654Z,7.43
2023-02-25T03:38:12.527Z,5.85
2023-02-25T03:40:41.896Z,6.18
2023-02-25T03:43:16.797Z,8.10
2023-02-25T03:45:45.134Z,6.70
2023-02-25T03:48:14.015Z,9.05
2023-02-25T03:50:48.956Z,6.85
2023-02-25T03:53:15.807Z,8.05
2023-02-25T03:55:42.740Z,7.00
2023-02-25T03:58:09.687Z,6.50
2023-02-25T04:00:38.517Z,5.75
2023-02-25T04:03:05.646Z,9.90
2023-02-25T04:05:32.865Z,6.60
2023-02-25T04:07:59.732Z,5.57
2023-02-25T04:10:26.728Z,5.95
2023-02-25T04:12:53.889Z,5.82
2023-02-25T04:15:21.159Z,3.97
2023-02-25T04:17:48.025Z,4.72
2023-02-25T04:20:16.580Z,4.22
2023-02-25T04:22:44.658Z,7.00
2023-02-25T04:25:11.670Z,6.60
2023-02-25T04:27:38.458Z,5.20
2023-02-25T04:30:07.275Z,4.25
2023-02-25T04:32:34.054Z,6.43
2023-02-25T04:35:03.345Z,7.55
2023-02-25T04:37:31.085Z,6.55
2023-02-25T04:39:57.938Z,5.93
2023-02-25T04:42:24.823Z,7.55
2023-02-25T04:44:51.611Z,8.52
2023-02-25T04:47:19.212Z,8.00
2023-02-25T04:49:46.136Z,8.48
2023-02-25T04:52:14.482Z,6.22
2023-02-25T04:54:41.345Z,8.55
2023-02-25T04:57:10.246Z,8.73
2023-02-25T04:59:37.123Z,10.65
2023-02-25T05:02:04.452Z,8.50
2023-02-25T05:04:31.312Z,7.00
2023-02-25T05:06:58.064Z,8.50
2023-02-25T05:09:24.850Z,6.20
2023-02-25T05:11:51.584Z,9.35
2023-02-25T05:14:18.545Z,7.28
2023-02-25T05:16:46.070Z,6.65
2023-02-25T05:19:17.701Z,10.05
2023-02-25T05:21:45.147Z,7.80
2023-02-25T05:24:12.508Z,9.07
2023-02-25T05:26:39.782Z,6.80
2023-02-25T05:29:06.973Z,7.75
2023-02-25T05:31:33.865Z,12.07
2023-02-25T05:34:00.802Z,7.30
2023-02-25T05:36:28.568Z,7.07
2023-02-25T05:38:58.920Z,5.85
2023-02-25T05:41:26.754Z,7.93
2023-02-25T05:43:53.464Z,8.00
2023-02-25T05:46:20.277Z,9.63
2023-02-25T05:48:47.101Z,6.25
2023-02-25T05:51:17.168Z,10.50
2023-02-25T05:53:44.804Z,6.22
2023-02-25T05:56:14.899Z,8.70
2023-02-25T05:58:41.725Z,7.97
2023-02-25T06:01:13.764Z,7.72
2023-02-25T06:03:42.550Z,9.93
2023-02-25T06:06:13.169Z,6.43
2023-02-25T06:08:40.102Z,9.18
2023-02-25T06:11:07.718Z,7.20
2023-02-25T06:13:35.400Z,6.03
2023-02-25T06:16:06.258Z,8.07
2023-02-25T06:18:36.691Z,9.32
2023-02-25T06:21:06.435Z,9.70
2023-02-25T06:23:34.689Z,9.63
2023-02-25T06:26:01.554Z,5.85
2023-02-25T06:28:28.831Z,7.15
2023-02-25T06:30:55.646Z,7.22
2023-02-25T06:33:22.778Z,8.00
2023-02-25T06:35:53.881Z,7.35
2023-02-25T06:38:21.119Z,7.60
2023-02-25T06:40:49.558Z,5.72
2023-02-25T06:43:17.089Z,6.82
2023-02-25T06:45:44.321Z,8.20
2023-02-25T06:48:11.194Z,8.50
2023-02-25T06:50:43.250Z,7.68
2023-02-25T06:53:10.273Z,6.53
2023-02-25T06:55:39.915Z,13.70
2023-02-25T06:58:07.160Z,9.57
2023-02-25T07:00:33.967Z,6.38
2023-02-25T07:03:03.004Z,9.32
2023-02-25T07:05:30.191Z,8.98
2023-02-25T07:07:56.985Z,7.85
2023-02-25T07:10:23.745Z,8.43
2023-02-25T07:12:52.563Z,6.85
2023-02-25T07:15:20.979Z,9.75
2023-02-25T07:17:47.756Z,10.73
2023-02-25T07:20:15.346Z,7.80
2023-02-25T07:22:42.156Z,6.20
2023-02-25T07:25:12.001Z,9.32
2023-02-25T07:27:44.661Z,8.55
2023-02-25T07:30:13.116Z,7.45
2023-02-25T07:32:41.098Z,8.60
2023-02-25T07:35:08.916Z,9.40
2023-02-25T07:37:35.645Z,5.68
2023-02-25T07:40:02.463Z,9.02
2023-02-25T07:42:30.418Z,5.38
2023-02-25T07:44:57.147Z,9.80
2023-02-25T07:47:23.850Z,8.40
2023-02-25T07:49:50.581Z,7.88
2023-02-25T07:52:17.280Z,6.78
2023-02-25T07:54:44.102Z,9.23
2023-02-25T07:57:11.010Z,7.68
2023-02-25T07:59:37.760Z,7.43
2023-02-25T08:02:05.241Z,11.48
2023-02-25T08:04:32.096Z,6.68
2023-02-25T08:06:58.853Z,7.63
2023-02-25T08:09:25.723Z,6.18
2023-02-25T08:11:52.599Z,5.63
2023-02-25T08:14:21.558Z,4.70
2023-02-25T08:16:49.084Z,7.72
2023-02-25T08:19:16.130Z,10.02
2023-02-25T08:21:42.964Z,13.73
2023-02-25T08:24:09.795Z,10.82
2023-02-25T08:26:36.610Z,7.57
2023-02-25T08:29:04.725Z,10.05
2023-02-25T08:31:31.585Z,7.80
2023-02-25T08:33:59.441Z,7.45
2023-02-25T08:36:30.462Z,7.78
2023-02-25T08:38:59.492Z,7.15
2023-02-25T08:41:28.539Z,8.65
2023-02-25T08:43:57.447Z,10.57
2023-02-25T08:46:27.398Z,7.53
2023-02-25T08:48:54.780Z,6.55
2023-02-25T08:51:23.893Z,9.13
2023-02-25T08:53:51.012Z,6.65
2023-02-25T08:56:18.026Z,8.02
2023-02-25T08:58:44.880Z,10.43
2023-02-25T09:01:17.747Z,8.23
2023-02-25T09:03:51.352Z,4.88
2023-02-25T09:06:23.914Z,6.65
2023-02-25T09:08:52.071Z,6.77
2023-02-25T09:11:19.472Z,11.35
2023-02-25T09:13:46.278Z,6.40
2023-02-25T09:16:15.833Z,8.40
2023-02-25T09:18:43.754Z,7.10
2023-02-25T09:21:12.813Z,10.63
2023-02-25T09:23:39.828Z,7.80
2023-02-25T09:26:07.382Z,7.53
2023-02-25T09:28:34.438Z,8.50
2023-02-25T09:31:02.609Z,7.45
2023-02-25T09:33:32.244Z,7.60
2023-02-25T09:36:17.140Z,9.43
2023-02-25T09:38:45.308Z,12.50
2023-02-25T09:41:26.895Z,5.47
2023-02-25T09:44:10.551Z,5.78
2023-02-25T09:49:34.819Z,6.90
2023-02-25T09:52:16.871Z,14.57
2023-02-25T09:54:47.158Z,8.57
2023-02-25T09:57:19.128Z,9.80
2023-02-25T09:59:54.171Z,5.82
2023-02-25T10:03:03.206Z,6.68
2023-02-25T10:05:58.815Z,9.23
2023-02-25T10:08:48.998Z,6.32
2023-02-25T10:11:43.580Z,8.80
2023-02-25T10:14:27.981Z,6.43
2023-02-25T10:17:26.183Z,6.63
2023-02-25T10:20:38.778Z,6.78
2023-02-25T10:23:23.622Z,5.60
2023-02-25T10:26:00.181Z,7.00
2023-02-25T10:28:29.683Z,6.60
2023-02-25T10:31:07.125Z,8.35
2023-02-25T10:33:36.959Z,8.02
2023-02-25T10:36:32.002Z,7.50
2023-02-25T10:38:58.882Z,6.38
2023-02-25T10:41:28.525Z,9.80
2023-02-25T10:43:56.171Z,6.10
2023-02-25T10:46:41.663Z,7.53
2023-02-25T10:49:25.688Z,12.48
2023-02-25T10:52:01.894Z,6.78
2023-02-25T10:54:31.614Z,7.75
2023-02-25T10:57:02.272Z,5.90
2023-02-25T10:59:35.641Z,6.70
2023-02-25T11:02:04.689Z,7.18
2023-02-25T11:04:37.389Z,6.72
2023-02-25T11:07:31.982Z,6.57
2023-02-25T11:10:21.766Z,4.32
2023-02-25T11:12:54.183Z,4.22
2023-02-25T11:15:44.164Z,8.60
2023-02-25T11:18:27.746Z,9.07
2023-02-25T11:20:57.185Z,6.15
2023-02-25T11:23:34.159Z,4.10
2023-02-25T11:26:01.603Z,7.07
2023-02-25T11:28:38.163Z,4.10
2023-02-25T11:31:17.424Z,9.13
2023-02-25T11:33:50.498Z,5.38
2023-02-25T11:36:23.657Z,6.35
2023-02-25T11:39:07.548Z,8.63
2023-02-25T11:41:34.337Z,6.72
2023-02-25T11:44:22.147Z,4.18
2023-02-25T11:47:02.531Z,4.88
2023-02-25T11:49:42.656Z,2.95
2023-02-25T11:52:27.475Z,8.90
2023-02-25T11:55:25.716Z,7.43
2023-02-25T11:58:04.547Z,5.15
2023-02-25T12:01:11.628Z,3.38
2023-02-25T12:03:51.194Z,4.15
2023-02-25T12:06:44.602Z,6.13
2023-02-25T12:09:45.194Z,7.25
2023-02-25T12:13:02.934Z,5.55
2023-02-25T12:16:02.309Z,4.07
2023-02-25T12:19:02.471Z,3.35
2023-02-25T12:22:04.417Z,6.45
2023-02-25T12:24:38.468Z,6.95
2023-02-25T12:27:50.326Z,5.07
2023-02-25T12:30:35.403Z,7.22
2023-02-25T12:33:21.048Z,5.50
2023-02-25T12:36:06.837Z,5.72
2023-02-25T12:39:13.098Z,6.05
2023-02-25T12:42:18.056Z,5.28
2023-02-25T12:45:03.541Z,8.15
2023-02-25T12:48:20.046Z,5.28
2023-02-25T12:50:55.953Z,7.82
2023-02-25T12:53:31.642Z,4.50
2023-02-25T12:56:23.198Z,3.75
2023-02-25T12:59:28.943Z,4.82
2023-02-25T13:02:35.660Z,3.47
2023-02-25T13:05:13.155Z,3.60
2023-02-25T13:07:58.745Z,5.43
2023-02-25T13:10:41.090Z,6.03
2023-02-25T13:13:50.190Z,2.35
2023-02-25T13:16:23.871Z,7.22
2023-02-25T13:19:24.764Z,6.75
2023-02-25T13:22:14.181Z,3.15
2023-02-25T13:25:10.269Z,3.40
2023-02-25T13:28:01.550Z,2.58
2023-02-25T13:30:40.074Z,3.95
2023-02-25T13:33:15.435Z,3.20
2023-02-25T13:35:56.237Z,4.10
2023-02-25T13:39:15.258Z,4.18
2023-02-25T13:41:59.914Z,4.55
2023-02-25T13:44:41.132Z,5.55
2023-02-25T13:47:32.621Z,6.00
2023-02-25T13:50:37.454Z,7.20
2023-02-25T13:53:33.884Z,3.67
2023-02-25T13:56:43.789Z,5.65
2023-02-25T13:59:13.344Z,4.22
2023-02-25T14:02:00.464Z,3.60
2023-02-25T14:04:54.224Z,2.22
2023-02-25T14:07:26.963Z,1.75
2023-02-25T14:10:17.500Z,4.68
2023-02-25T14:13:07.485Z,8.27
2023-02-25T14:15:45.269Z,5.20
2023-02-25T14:18:14.731Z,6.88
2023-02-25T14:20:47.288Z,6.63
2023-02-25T14:23:42.002Z,3.70
2023-02-25T14:26:19.747Z,1.17
2023-02-25T14:29:15.122Z,0.43
2023-02-25T14:32:19.629Z,0.50
2023-02-25T14:35:03.845Z,3.08
2023-02-25T14:37:40.163Z,3.80
2023-02-25T14:40:24.190Z,1.27
2023-02-25T14:43:01.889Z,2.15
2023-02-25T14:45:48.279Z,3.42
2023-02-25T14:48:26.943Z,4.03
2023-02-25T14:51:13.322Z,2.55
2023-02-25T14:54:13.030Z,0.73
2023-02-25T14:56:54.860Z,1.33
2023-02-25T14:59:50.219Z,0.45
2023-02-25T15:02:28.864Z,1.10
2023-02-25T15:05:20.118Z,1.70
2023-02-25T15:08:09.394Z,1.70
2023-02-25T15:10:48.254Z,1.08
2023-02-25T15:13:33.652Z,1.45
2023-02-25T15:16:22.746Z,1.58
2023-02-25T15:18:49.619Z,1.88
2023-02-25T15:21:37.324Z,1.75
2023-02-25T15:24:09.778Z,2.10
2023-02-25T15:26:41.983Z,1.85
2023-02-25T15:29:44.105Z,1.73
2023-02-25T15:32:24.715Z,1.25
2023-02-25T15:34:54.502Z,0.98
2023-02-25T15:37:37.314Z,1.95
2023-02-25T15:40:16.311Z,2.42
2023-02-25T15:42:48.220Z,3.28
2023-02-25T15:45:27.655Z,2.00
2023-02-25T15:48:09.814Z,2.28
2023-02-25T15:50:42.280Z,2.20
2023-02-25T15:53:10.124Z,2.67
2023-02-25T15:55:42.146Z,3.03
2023-02-25T15:58:24.261Z,2.53
2023-02-25T16:01:06.664Z,1.88
2023-02-25T16:03:36.226Z,2.78
2023-02-25T16:06:22.091Z,2.05
2023-02-25T16:09:13.758Z,3.60
2023-02-25T16:11:47.142Z,2.80
2023-02-25T16:17:11.902Z,2.45
2023-02-25T16:19:40.000Z,6.03
2023-02-25T16:22:23.180Z,6.90
2023-02-25T16:24:53.017Z,4.97
2023-02-25T16:27:36.352Z,4.60
2023-02-25T16:30:24.143Z,4.95
2023-02-25T16:33:11.877Z,4.00
2023-02-25T16:35:50.371Z,2.97
2023-02-25T16:38:51.217Z,3.40
2023-02-25T16:41:18.303Z,4.47
2023-02-25T16:43:45.892Z,2.40
2023-02-25T16:46:20.755Z,3.65
2023-02-25T16:48:51.870Z,4.20
2023-02-25T16:51:38.426Z,3.78
2023-02-25T16:54:18.431Z,3.20
2023-02-25T16:56:48.891Z,3.40
2023-02-25T16:59:21.521Z,4.85
2023-02-25T17:02:01.036Z,4.57
2023-02-25T17:04:31.790Z,6.15
2023-02-25T17:07:22.353Z,6.43
2023-02-25T17:10:23.247Z,4.10
2023-02-25T17:12:50.023Z,4.47
2023-02-25T17:15:22.807Z,4.22
2023-02-25T17:17:53.889Z,4.05
2023-02-25T17:20:24.452Z,3.58
2023-02-25T17:22:52.337Z,4.28
2023-02-25T17:25:20.659Z,4.15
2023-02-25T17:27:49.831Z,4.97
2023-02-25T17:30:40.983Z,5.88
2023-02-25T17:33:22.428Z,4.80
2023-02-25T17:35:53.261Z,4.40
2023-02-25T17:38:23.477Z,5.40
2023-02-25T17:40:52.870Z,4.20
2023-02-25T17:43:23.063Z,3.85
2023-02-25T17:45:50.372Z,4.78
2023-02-25T17:48:21.120Z,4.68
2023-02-25T17:50:53.282Z,4.80
2023-02-25T17:53:43.624Z,4.70
2023-02-25T17:56:24.314Z,7.30
2023-02-25T17:58:52.928Z,5.80
2023-02-25T18:01:31.625Z,4.50
2023-02-25T18:04:05.105Z,4.45
2023-02-25T18:06:39.117Z,5.10
2023-02-25T18:09:06.264Z,3.67
2023-02-25T18:11:39.956Z,2.08
2023-02-25T18:14:32.003Z,1.85
2023-02-25T18:16:58.977Z,3.42
2023-02-25T18:19:55.212Z,3.65
2023-02-25T18:22:48.162Z,3.28
2023-02-25T18:25:34.858Z,3.40
2023-02-25T18:28:03.248Z,3.80
2023-02-25T18:30:32.233Z,4.88
2023-02-25T18:32:59.670Z,5.03
2023-02-25T18:35:28.302Z,2.80
2023-02-25T18:37:57.002Z,3.75
2023-02-25T18:40:26.964Z,2.53
2023-02-25T18:42:54.246Z,4.22
2023-02-25T18:45:23.450Z,2.70
2023-02-25T18:47:51.393Z,4.28
2023-02-25T18:50:19.972Z,4.65
2023-02-25T18:52:46.994Z,3.95
2023-02-25T18:55:21.262Z,2.80
2023-02-25T18:57:48.089Z,4.55
2023-02-25T19:00:16.544Z,3.25
2023-02-25T19:02:53.037Z,4.15
2023-02-25T19:05:22.517Z,3.42
2023-02-25T19:07:50.129Z,3.85
2023-02-25T19:10:20.075Z,3.65
2023-02-25T19:12:50.854Z,3.10
2023-02-25T19:15:21.194Z,3.20
2023-02-25T19:17:51.468Z,2.95
2023-02-25T19:20:20.333Z,3.97
2023-02-25T19:22:50.862Z,3.13
2023-02-25T19:25:24.151Z,3.38
2023-02-25T19:30:21.056Z,2.72
2023-02-25T19:32:47.929Z,2.38
2023-02-25T19:35:14.880Z,3.38
2023-02-25T19:37:42.252Z,2.03
2023-02-25T19:40:12.105Z,3.72
2023-02-25T19:42:40.725Z,1.00
2023-02-25T19:45:09.992Z,2.63
2023-02-25T19:47:37.284Z,2.50
2023-02-25T19:50:06.165Z,3.65
2023-02-25T19:52:33.728Z,2.88
2023-02-25T19:55:01.910Z,1.70
2023-02-25T19:57:29.001Z,1.65
2023-02-25T19:59:55.748Z,4.35
2023-02-25T20:02:22.706Z,3.33
2023-02-25T20:04:49.533Z,2.90
2023-02-25T20:07:16.297Z,2.83
2023-02-25T20:09:43.345Z,2.80
2023-02-25T20:12:10.446Z,3.90
2023-02-25T20:14:37.655Z,2.22
2023-02-25T20:17:04.948Z,4.00
2023-02-25T20:19:32.949Z,2.50
2023-02-25T20:22:01.811Z,3.38
2023-02-25T20:24:30.226Z,2.55
2023-02-25T20:26:56.985Z,2.38
2023-02-25T20:29:23.776Z,2.92
2023-02-25T20:31:50.710Z,3.83
2023-02-25T20:34:21.131Z,3.33
2023-02-25T20:36:53.299Z,3.60
2023-02-25T20:39:38.636Z,4.50
2023-02-25T20:42:15.158Z,2.70
2023-02-25T20:44:43.181Z,2.92
2023-02-25T20:47:18.247Z,3.38
2023-02-25T20:49:45.276Z,4.40
2023-02-25T20:52:13.556Z,5.53
2023-02-25T20:54:40.946Z,7.47
2023-02-25T20:57:09.371Z,3.85
2023-02-25T20:59:36.152Z,3.15
2023-02-25T21:02:02.992Z,4.35
2023-02-25T21:04:29.803Z,3.35
2023-02-25T21:06:56.634Z,3.63
2023-02-25T21:09:23.399Z,3.35
2023-02-25T21:11:50.562Z,3.80
2023-02-25T21:14:17.298Z,3.63
2023-02-25T21:16:44.131Z,3.00
2023-02-25T21:19:10.977Z,3.20
2023-02-25T21:21:38.010Z,3.35
2023-02-25T21:24:06.799Z,2.75
2023-02-25T21:26:34.219Z,3.47
2023-02-25T21:29:00.948Z,2.80
2023-02-25T21:31:27.940Z,3.83
2023-02-25T21:33:54.921Z,3.08
2023-02-25T21:36:21.707Z,3.85
2023-02-25T21:38:49.882Z,2.40
2023-02-25T21:41:16.988Z,3.72
2023-02-25T21:43:44.195Z,3.22
2023-02-25T21:46:13.247Z,4.50
2023-02-25T21:48:40.954Z,4.68
2023-02-25T21:51:17.916Z,3.58
2023-02-25T21:53:45.067Z,3.38
2023-02-25T21:56:15.772Z,3.67
2023-02-25T21:58:43.412Z,3.45
2023-02-25T22:01:13.054Z,2.95
2023-02-25T22:03:39.908Z,3.58
2023-02-25T22:06:08.840Z,3.70
2023-02-25T22:08:37.829Z,3.42
2023-02-25T22:11:05.052Z,3.15
2023-02-25T22:13:35.039Z,3.63
2023-02-25T22:16:06.399Z,3.63
2023-02-25T22:18:36.305Z,2.42
2023-02-25T22:21:05.257Z,3.03
2023-02-25T22:23:31.961Z,2.85
2023-02-25T22:26:03.867Z,3.50
2023-02-25T22:28:30.930Z,2.88
2023-02-25T22:30:58.014Z,2.90
2023-02-25T22:33:25.085Z,4.20
2023-02-25T22:36:02.790Z,3.78
2023-02-25T22:38:32.214Z,2.28
2023-02-25T22:41:01.296Z,3.28
2023-02-25T22:43:29.193Z,3.08
2023-02-25T22:46:14.513Z,2.15
2023-02-25T22:48:43.949Z,2.85
2023-02-25T22:51:11.520Z,3.28
2023-02-25T22:53:39.970Z,5.65
2023-02-25T22:56:09.642Z,2.72
2023-02-25T22:58:38.948Z,4.50
2023-02-25T23:01:12.078Z,4.07
2023-02-25T23:03:38.996Z,2.85
2023-02-25T23:06:06.887Z,2.88
2023-02-25T23:08:34.848Z,2.60
2023-02-25T23:11:16.647Z,4.70
2023-02-25T23:13:48.650Z,4.60
2023-02-25T23:16:17.590Z,2.90
2023-02-25T23:18:45.745Z,3.42
2023-02-25T23:21:18.785Z,5.43
2023-02-25T23:23:57.142Z,3.90
2023-02-25T23:26:30.361Z,4.25
2023-02-25T23:31:27.306Z,6.25
2023-02-25T23:33:59.686Z,3.45
2023-02-25T23:36:27.662Z,5.43
2023-02-25T23:39:00.416Z,6.00
2023-02-25T23:41:29.000Z,3.50
2023-02-25T23:43:58.668Z,5.50
2023-02-25T23:46:27.349Z,3.85
2023-02-25T23:48:58.615Z,5.32
2023-02-25T23:51:26.517Z,4.70
2023-02-25T23:53:57.913Z,5.35
2023-02-25T23:56:27.228Z,4.28
2023-02-25T23:58:55.844Z,6.05
